sensor_id;sensor_type;location;lat;lon;timestamp;P1;durP1;ratioP1;P2;durP2;ratioP2
7957;SDS011;4024;52.172;5.378;2023-03-20T00:01:26;12.17;;;6.83;;
7957;SDS011;4024;52.172;5.378;2023-03-20T00:03:54;8.47;;;6.73;;
7957;SDS011;4024;52.172;5.378;2023-03-20T00:06:22;13.03;;;7.17;;
7957;SDS011;4024;52.172;5.378;2023-03-20T00:08:51;10.10;;;7.00;;
7957;SDS011;4024;52.172;5.378;2023-03-20T00:13:58;10.90;;;7.83;;
7957;SDS011;4024;52.172;5.378;2023-03-20T00:16:34;14.40;;;8.83;;
7957;SDS011;4024;52.172;5.378;2023-03-20T00:19:01;15.67;;;9.30;;
7957;SDS011;4024;52.172;5.378;2023-03-20T00:21:28;12.67;;;9.60;;
7957;SDS011;4024;52.172;5.378;2023-03-20T00:23:54;15.33;;;10.47;;
7957;SDS011;4024;52.172;5.378;2023-03-20T00:26:22;16.30;;;10.10;;
7957;SDS011;4024;52.172;5.378;2023-03-20T00:28:52;13.53;;;10.10;;
7957;SDS011;4024;52.172;5.378;2023-03-20T00:31:21;14.47;;;10.43;;
7957;SDS011;4024;52.172;5.378;2023-03-20T00:33:53;15.07;;;9.70;;
7957;SDS011;4024;52.172;5.378;2023-03-20T00:36:24;14.20;;;9.60;;
7957;SDS011;4024;52.172;5.378;2023-03-20T00:38:51;13.30;;;9.60;;
7957;SDS011;4024;52.172;5.378;2023-03-20T00:43:58;17.47;;;9.63;;
7957;SDS011;4024;52.172;5.378;2023-03-20T00:46:26;14.63;;;9.67;;
7957;SDS011;4024;52.172;5.378;2023-03-20T00:48:52;14.87;;;9.30;;
7957;SDS011;4024;52.172;5.378;2023-03-20T00:51:18;12.23;;;8.97;;
7957;SDS011;4024;52.172;5.378;2023-03-20T00:53:44;12.87;;;9.20;;
7957;SDS011;4024;52.172;5.378;2023-03-20T00:58:56;13.40;;;8.70;;
7957;SDS011;4024;52.172;5.378;2023-03-20T01:01:23;11.73;;;8.50;;
7957;SDS011;4024;52.172;5.378;2023-03-20T01:03:49;12.03;;;8.70;;
7957;SDS011;4024;52.172;5.378;2023-03-20T01:06:14;9.80;;;7.03;;
7957;SDS011;4024;52.172;5.378;2023-03-20T01:08:40;10.50;;;7.63;;
7957;SDS011;4024;52.172;5.378;2023-03-20T01:11:08;8.97;;;7.33;;
7957;SDS011;4024;52.172;5.378;2023-03-20T01:13:36;13.43;;;7.63;;
7957;SDS011;4024;52.172;5.378;2023-03-20T01:16:02;10.73;;;6.50;;
7957;SDS011;4024;52.172;5.378;2023-03-20T01:18:28;8.50;;;6.50;;
7957;SDS011;4024;52.172;5.378;2023-03-20T01:20:54;8.57;;;6.30;;
7957;SDS011;4024;52.172;5.378;2023-03-20T01:23:20;11.03;;;6.97;;
7957;SDS011;4024;52.172;5.378;2023-03-20T01:25:47;7.83;;;6.60;;
7957;SDS011;4024;52.172;5.378;2023-03-20T01:30:44;9.93;;;7.93;;
7957;SDS011;4024;52.172;5.378;2023-03-20T01:33:11;8.83;;;7.90;;
7957;SDS011;4024;52.172;5.378;2023-03-20T01:35:42;12.57;;;8.57;;
7957;SDS011;4024;52.172;5.378;2023-03-20T01:38:25;14.37;;;9.40;;
7957;SDS011;4024;52.172;5.378;2023-03-20T01:40:53;12.43;;;9.43;;
7957;SDS011;4024;52.172;5.378;2023-03-20T01:43:20;10.70;;;8.43;;
7957;SDS011;4024;52.172;5.378;2023-03-20T01:48:54;11.80;;;8.47;;
7957;SDS011;4024;52.172;5.378;2023-03-20T01:51:20;10.33;;;8.50;;
7957;SDS011;4024;52.172;5.378;2023-03-20T01:53:49;10.70;;;8.43;;
7957;SDS011;4024;52.172;5.378;2023-03-20T01:56:21;10.73;;;7.93;;
7957;SDS011;4024;52.172;5.378;2023-03-20T01:58:52;10.20;;;7.80;;
7957;SDS011;4024;52.172;5.378;2023-03-20T02:01:25;13.47;;;8.20;;
7957;SDS011;4024;52.172;5.378;2023-03-20T02:03:51;9.40;;;7.80;;
7957;SDS011;4024;52.172;5.378;2023-03-20T02:06:18;10.00;;;7.00;;
7957;SDS011;4024;52.172;5.378;2023-03-20T02:08:48;10.20;;;7.00;;
7957;SDS011;4024;52.172;5.378;2023-03-20T02:11:15;10.23;;;6.80;;
7957;SDS011;4024;52.172;5.378;2023-03-20T02:13:43;12.00;;;6.70;;
7957;SDS011;4024;52.172;5.378;2023-03-20T02:16:10;8.47;;;6.27;;
7957;SDS011;4024;52.172;5.378;2023-03-20T02:18:36;10.33;;;6.03;;
7957;SDS011;4024;52.172;5.378;2023-03-20T02:34:47;11.47;;;6.30;;
7957;SDS011;4024;52.172;5.378;2023-03-20T02:37:43;11.73;;;6.47;;
7957;SDS011;4024;52.172;5.378;2023-03-20T02:40:40;15.17;;;6.60;;
7957;SDS011;4024;52.172;5.378;2023-03-20T02:45:52;11.90;;;6.77;;
7957;SDS011;4024;52.172;5.378;2023-03-20T02:50:57;10.90;;;7.17;;
7957;SDS011;4024;52.172;5.378;2023-03-20T02:53:33;12.03;;;7.00;;
7957;SDS011;4024;52.172;5.378;2023-03-20T03:01:26;15.00;;;7.73;;
7957;SDS011;4024;52.172;5.378;2023-03-20T03:04:00;10.77;;;7.30;;
7957;SDS011;4024;52.172;5.378;2023-03-20T03:06:50;15.03;;;8.30;;
7957;SDS011;4024;52.172;5.378;2023-03-20T03:09:24;14.27;;;8.63;;
7957;SDS011;4024;52.172;5.378;2023-03-20T03:11:55;15.67;;;9.17;;
7957;SDS011;4024;52.172;5.378;2023-03-20T03:14:37;14.17;;;8.63;;
7957;SDS011;4024;52.172;5.378;2023-03-20T03:17:14;15.77;;;9.90;;
7957;SDS011;4024;52.172;5.378;2023-03-20T03:19:43;18.87;;;9.83;;
7957;SDS011;4024;52.172;5.378;2023-03-20T03:22:14;15.53;;;9.87;;
7957;SDS011;4024;52.172;5.378;2023-03-20T03:24:45;16.43;;;9.37;;
7957;SDS011;4024;52.172;5.378;2023-03-20T03:27:20;17.17;;;10.07;;
7957;SDS011;4024;52.172;5.378;2023-03-20T03:29:54;17.77;;;9.63;;
7957;SDS011;4024;52.172;5.378;2023-03-20T03:32:29;16.03;;;10.33;;
7957;SDS011;4024;52.172;5.378;2023-03-20T03:34:59;15.87;;;10.43;;
7957;SDS011;4024;52.172;5.378;2023-03-20T03:37:49;17.90;;;11.20;;
7957;SDS011;4024;52.172;5.378;2023-03-20T03:43:02;21.90;;;12.17;;
7957;SDS011;4024;52.172;5.378;2023-03-20T03:45:43;23.63;;;12.80;;
7957;SDS011;4024;52.172;5.378;2023-03-20T03:48:23;18.97;;;11.20;;
7957;SDS011;4024;52.172;5.378;2023-03-20T03:50:56;25.53;;;13.63;;
7957;SDS011;4024;52.172;5.378;2023-03-20T03:53:31;20.40;;;12.83;;
7957;SDS011;4024;52.172;5.378;2023-03-20T03:56:03;23.53;;;14.17;;
7957;SDS011;4024;52.172;5.378;2023-03-20T03:58:36;22.33;;;13.97;;
7957;SDS011;4024;52.172;5.378;2023-03-20T04:03:40;21.53;;;14.10;;
7957;SDS011;4024;52.172;5.378;2023-03-20T04:06:10;22.70;;;14.20;;
7957;SDS011;4024;52.172;5.378;2023-03-20T04:08:38;23.13;;;13.57;;
7957;SDS011;4024;52.172;5.378;2023-03-20T04:11:04;24.63;;;14.37;;
7957;SDS011;4024;52.172;5.378;2023-03-20T04:13:30;22.77;;;14.27;;
7957;SDS011;4024;52.172;5.378;2023-03-20T04:15:56;21.73;;;13.77;;
7957;SDS011;4024;52.172;5.378;2023-03-20T04:18:21;23.67;;;13.73;;
7957;SDS011;4024;52.172;5.378;2023-03-20T04:20:47;21.83;;;13.43;;
7957;SDS011;4024;52.172;5.378;2023-03-20T04:25:42;24.30;;;14.27;;
7957;SDS011;4024;52.172;5.378;2023-03-20T04:28:08;23.83;;;14.53;;
7957;SDS011;4024;52.172;5.378;2023-03-20T04:30:35;20.67;;;13.30;;
7957;SDS011;4024;52.172;5.378;2023-03-20T04:33:01;25.97;;;14.80;;
7957;SDS011;4024;52.172;5.378;2023-03-20T04:35:26;24.00;;;14.13;;
7957;SDS011;4024;52.172;5.378;2023-03-20T04:37:53;20.87;;;13.47;;
7957;SDS011;4024;52.172;5.378;2023-03-20T04:40:19;23.90;;;13.93;;
7957;SDS011;4024;52.172;5.378;2023-03-20T04:42:44;21.67;;;14.10;;
7957;SDS011;4024;52.172;5.378;2023-03-20T04:45:11;19.10;;;12.87;;
7957;SDS011;4024;52.172;5.378;2023-03-20T04:47:36;20.33;;;14.03;;
7957;SDS011;4024;52.172;5.378;2023-03-20T04:50:02;21.67;;;13.33;;
7957;SDS011;4024;52.172;5.378;2023-03-20T04:52:28;19.90;;;13.90;;
7957;SDS011;4024;52.172;5.378;2023-03-20T04:54:54;20.37;;;13.30;;
7957;SDS011;4024;52.172;5.378;2023-03-20T04:57:19;21.73;;;14.10;;
7957;SDS011;4024;52.172;5.378;2023-03-20T04:59:46;24.90;;;15.43;;
7957;SDS011;4024;52.172;5.378;2023-03-20T05:02:12;26.67;;;14.53;;
7957;SDS011;4024;52.172;5.378;2023-03-20T05:04:39;22.67;;;15.10;;
7957;SDS011;4024;52.172;5.378;2023-03-20T05:07:08;24.53;;;15.53;;
7957;SDS011;4024;52.172;5.378;2023-03-20T05:09:34;26.17;;;15.63;;
7957;SDS011;4024;52.172;5.378;2023-03-20T05:12:00;24.23;;;15.47;;
7957;SDS011;4024;52.172;5.378;2023-03-20T05:14:26;21.97;;;14.97;;
7957;SDS011;4024;52.172;5.378;2023-03-20T05:16:51;22.10;;;15.53;;
7957;SDS011;4024;52.172;5.378;2023-03-20T05:19:17;23.43;;;15.63;;
7957;SDS011;4024;52.172;5.378;2023-03-20T05:21:43;22.13;;;15.97;;
7957;SDS011;4024;52.172;5.378;2023-03-20T05:24:08;23.73;;;16.13;;
7957;SDS011;4024;52.172;5.378;2023-03-20T05:26:34;22.33;;;15.07;;
7957;SDS011;4024;52.172;5.378;2023-03-20T05:29:00;25.00;;;16.23;;
7957;SDS011;4024;52.172;5.378;2023-03-20T05:31:25;24.13;;;15.30;;
7957;SDS011;4024;52.172;5.378;2023-03-20T05:33:51;21.63;;;14.57;;
7957;SDS011;4024;52.172;5.378;2023-03-20T05:36:16;25.53;;;15.60;;
7957;SDS011;4024;52.172;5.378;2023-03-20T05:38:42;20.00;;;14.97;;
7957;SDS011;4024;52.172;5.378;2023-03-20T05:41:08;21.80;;;15.43;;
7957;SDS011;4024;52.172;5.378;2023-03-20T05:43:33;23.17;;;15.83;;
7957;SDS011;4024;52.172;5.378;2023-03-20T05:45:59;19.53;;;14.27;;
7957;SDS011;4024;52.172;5.378;2023-03-20T05:48:25;25.37;;;15.70;;
7957;SDS011;4024;52.172;5.378;2023-03-20T05:50:51;22.40;;;14.77;;
7957;SDS011;4024;52.172;5.378;2023-03-20T05:53:17;19.33;;;13.97;;
7957;SDS011;4024;52.172;5.378;2023-03-20T05:55:42;21.33;;;15.37;;
7957;SDS011;4024;52.172;5.378;2023-03-20T05:58:11;25.37;;;15.70;;
7957;SDS011;4024;52.172;5.378;2023-03-20T06:03:06;23.47;;;14.73;;
7957;SDS011;4024;52.172;5.378;2023-03-20T06:05:32;20.87;;;14.53;;
7957;SDS011;4024;52.172;5.378;2023-03-20T06:07:58;22.87;;;15.27;;
7957;SDS011;4024;52.172;5.378;2023-03-20T06:10:24;21.10;;;14.93;;
7957;SDS011;4024;52.172;5.378;2023-03-20T06:12:51;20.33;;;14.53;;
7957;SDS011;4024;52.172;5.378;2023-03-20T06:15:18;20.70;;;13.90;;
7957;SDS011;4024;52.172;5.378;2023-03-20T06:17:43;23.33;;;14.67;;
7957;SDS011;4024;52.172;5.378;2023-03-20T06:20:09;19.87;;;13.93;;
7957;SDS011;4024;52.172;5.378;2023-03-20T06:22:35;22.13;;;14.07;;
7957;SDS011;4024;52.172;5.378;2023-03-20T06:25:01;23.73;;;15.03;;
7957;SDS011;4024;52.172;5.378;2023-03-20T06:27:27;20.00;;;13.33;;
7957;SDS011;4024;52.172;5.378;2023-03-20T06:29:52;18.30;;;13.60;;
7957;SDS011;4024;52.172;5.378;2023-03-20T06:32:18;21.53;;;13.97;;
7957;SDS011;4024;52.172;5.378;2023-03-20T06:34:43;21.73;;;13.73;;
7957;SDS011;4024;52.172;5.378;2023-03-20T06:37:09;23.23;;;14.43;;
7957;SDS011;4024;52.172;5.378;2023-03-20T06:39:34;18.90;;;13.30;;
7957;SDS011;4024;52.172;5.378;2023-03-20T06:42:00;18.73;;;14.07;;
7957;SDS011;4024;52.172;5.378;2023-03-20T06:44:26;20.93;;;13.63;;
7957;SDS011;4024;52.172;5.378;2023-03-20T06:46:52;23.07;;;14.07;;
7957;SDS011;4024;52.172;5.378;2023-03-20T06:49:17;21.77;;;13.77;;
7957;SDS011;4024;52.172;5.378;2023-03-20T06:51:43;20.60;;;13.57;;
7957;SDS011;4024;52.172;5.378;2023-03-20T06:54:09;19.43;;;14.17;;
7957;SDS011;4024;52.172;5.378;2023-03-20T06:56:35;20.13;;;13.10;;
7957;SDS011;4024;52.172;5.378;2023-03-20T06:59:00;18.33;;;14.23;;
7957;SDS011;4024;52.172;5.378;2023-03-20T07:01:26;22.50;;;13.33;;
7957;SDS011;4024;52.172;5.378;2023-03-20T07:03:53;20.77;;;13.33;;
7957;SDS011;4024;52.172;5.378;2023-03-20T07:06:18;21.27;;;12.97;;
7957;SDS011;4024;52.172;5.378;2023-03-20T07:08:44;19.73;;;13.67;;
7957;SDS011;4024;52.172;5.378;2023-03-20T07:11:10;19.07;;;12.90;;
7957;SDS011;4024;52.172;5.378;2023-03-20T07:13:35;19.80;;;12.70;;
7957;SDS011;4024;52.172;5.378;2023-03-20T07:16:02;20.37;;;12.27;;
7957;SDS011;4024;52.172;5.378;2023-03-20T07:18:28;16.67;;;12.27;;
7957;SDS011;4024;52.172;5.378;2023-03-20T07:20:57;18.37;;;12.63;;
7957;SDS011;4024;52.172;5.378;2023-03-20T07:23:26;20.00;;;11.60;;
7957;SDS011;4024;52.172;5.378;2023-03-20T07:25:52;21.70;;;14.43;;
7957;SDS011;4024;52.172;5.378;2023-03-20T07:28:17;20.87;;;12.47;;
7957;SDS011;4024;52.172;5.378;2023-03-20T07:30:43;18.53;;;12.43;;
7957;SDS011;4024;52.172;5.378;2023-03-20T07:33:08;18.60;;;12.53;;
7957;SDS011;4024;52.172;5.378;2023-03-20T07:35:34;24.73;;;12.30;;
7957;SDS011;4024;52.172;5.378;2023-03-20T07:38:00;16.87;;;11.40;;
7957;SDS011;4024;52.172;5.378;2023-03-20T07:40:26;23.47;;;11.93;;
7957;SDS011;4024;52.172;5.378;2023-03-20T07:42:51;17.07;;;11.97;;
7957;SDS011;4024;52.172;5.378;2023-03-20T07:45:17;21.53;;;12.27;;
7957;SDS011;4024;52.172;5.378;2023-03-20T07:47:43;14.90;;;11.17;;
7957;SDS011;4024;52.172;5.378;2023-03-20T07:50:12;15.17;;;10.67;;
7957;SDS011;4024;52.172;5.378;2023-03-20T07:52:38;16.30;;;11.30;;
7957;SDS011;4024;52.172;5.378;2023-03-20T07:55:14;17.43;;;10.60;;
7957;SDS011;4024;52.172;5.378;2023-03-20T07:57:40;17.27;;;10.90;;
7957;SDS011;4024;52.172;5.378;2023-03-20T08:00:06;14.53;;;10.13;;
7957;SDS011;4024;52.172;5.378;2023-03-20T08:02:33;18.93;;;11.27;;
7957;SDS011;4024;52.172;5.378;2023-03-20T08:04:58;14.10;;;10.07;;
7957;SDS011;4024;52.172;5.378;2023-03-20T08:07:30;21.20;;;11.17;;
7957;SDS011;4024;52.172;5.378;2023-03-20T08:09:56;22.07;;;11.33;;
7957;SDS011;4024;52.172;5.378;2023-03-20T08:12:21;22.03;;;10.40;;
7957;SDS011;4024;52.172;5.378;2023-03-20T08:14:47;21.37;;;10.73;;
7957;SDS011;4024;52.172;5.378;2023-03-20T08:17:12;17.87;;;9.43;;
7957;SDS011;4024;52.172;5.378;2023-03-20T08:19:40;16.37;;;9.87;;
7957;SDS011;4024;52.172;5.378;2023-03-20T08:22:07;19.73;;;9.63;;
7957;SDS011;4024;52.172;5.378;2023-03-20T08:24:32;13.10;;;9.17;;
7957;SDS011;4024;52.172;5.378;2023-03-20T08:26:58;14.50;;;9.37;;
7957;SDS011;4024;52.172;5.378;2023-03-20T08:29:24;20.00;;;11.07;;
7957;SDS011;4024;52.172;5.378;2023-03-20T08:31:49;18.97;;;9.87;;
7957;SDS011;4024;52.172;5.378;2023-03-20T08:34:15;13.10;;;8.70;;
7957;SDS011;4024;52.172;5.378;2023-03-20T08:36:41;13.23;;;8.83;;
7957;SDS011;4024;52.172;5.378;2023-03-20T08:39:07;17.00;;;9.50;;
7957;SDS011;4024;52.172;5.378;2023-03-20T08:41:35;15.10;;;9.00;;
7957;SDS011;4024;52.172;5.378;2023-03-20T08:44:02;13.03;;;9.10;;
7957;SDS011;4024;52.172;5.378;2023-03-20T08:46:29;14.73;;;8.53;;
7957;SDS011;4024;52.172;5.378;2023-03-20T08:48:54;13.50;;;8.23;;
7957;SDS011;4024;52.172;5.378;2023-03-20T08:51:20;13.77;;;9.13;;
7957;SDS011;4024;52.172;5.378;2023-03-20T08:53:46;12.70;;;7.83;;
7957;SDS011;4024;52.172;5.378;2023-03-20T08:56:12;18.97;;;8.80;;
7957;SDS011;4024;52.172;5.378;2023-03-20T08:58:43;11.47;;;7.57;;
7957;SDS011;4024;52.172;5.378;2023-03-20T09:01:09;15.80;;;8.63;;
7957;SDS011;4024;52.172;5.378;2023-03-20T09:03:35;12.63;;;8.13;;
7957;SDS011;4024;52.172;5.378;2023-03-20T09:06:03;11.83;;;8.43;;
7957;SDS011;4024;52.172;5.378;2023-03-20T09:08:30;15.57;;;8.33;;
7957;SDS011;4024;52.172;5.378;2023-03-20T09:10:56;12.87;;;8.27;;
7957;SDS011;4024;52.172;5.378;2023-03-20T09:13:21;16.33;;;9.63;;
7957;SDS011;4024;52.172;5.378;2023-03-20T09:15:47;12.20;;;7.73;;
7957;SDS011;4024;52.172;5.378;2023-03-20T09:18:13;11.27;;;7.00;;
7957;SDS011;4024;52.172;5.378;2023-03-20T09:20:39;12.23;;;7.53;;
7957;SDS011;4024;52.172;5.378;2023-03-20T09:23:04;11.63;;;7.63;;
7957;SDS011;4024;52.172;5.378;2023-03-20T09:25:30;17.07;;;7.40;;
7957;SDS011;4024;52.172;5.378;2023-03-20T09:27:56;13.87;;;7.30;;
7957;SDS011;4024;52.172;5.378;2023-03-20T09:30:22;10.10;;;6.70;;
7957;SDS011;4024;52.172;5.378;2023-03-20T09:32:49;11.23;;;7.40;;
7957;SDS011;4024;52.172;5.378;2023-03-20T09:35:15;12.37;;;6.80;;
7957;SDS011;4024;52.172;5.378;2023-03-20T09:37:41;12.77;;;7.13;;
7957;SDS011;4024;52.172;5.378;2023-03-20T09:40:07;13.03;;;7.20;;
7957;SDS011;4024;52.172;5.378;2023-03-20T09:43:01;11.70;;;7.20;;
7957;SDS011;4024;52.172;5.378;2023-03-20T09:45:42;14.80;;;7.73;;
7957;SDS011;4024;52.172;5.378;2023-03-20T09:48:32;12.23;;;6.80;;
7957;SDS011;4024;52.172;5.378;2023-03-20T09:53:48;10.47;;;6.50;;
7957;SDS011;4024;52.172;5.378;2023-03-20T09:56:24;12.07;;;7.17;;
7957;SDS011;4024;52.172;5.378;2023-03-20T09:58:53;14.20;;;7.30;;
7957;SDS011;4024;52.172;5.378;2023-03-20T10:01:32;11.33;;;7.20;;
7957;SDS011;4024;52.172;5.378;2023-03-20T10:04:14;14.60;;;7.30;;
7957;SDS011;4024;52.172;5.378;2023-03-20T10:06:39;11.90;;;7.30;;
7957;SDS011;4024;52.172;5.378;2023-03-20T10:09:15;13.83;;;7.23;;
7957;SDS011;4024;52.172;5.378;2023-03-20T10:17:20;12.13;;;6.40;;
7957;SDS011;4024;52.172;5.378;2023-03-20T10:19:58;10.50;;;6.80;;
7957;SDS011;4024;52.172;5.378;2023-03-20T10:22:46;13.13;;;7.10;;
7957;SDS011;4024;52.172;5.378;2023-03-20T10:25:19;11.30;;;6.20;;
7957;SDS011;4024;52.172;5.378;2023-03-20T10:30:32;9.57;;;6.00;;
7957;SDS011;4024;52.172;5.378;2023-03-20T10:36:17;11.60;;;6.20;;
7957;SDS011;4024;52.172;5.378;2023-03-20T10:39:03;9.27;;;6.23;;
7957;SDS011;4024;52.172;5.378;2023-03-20T10:41:37;10.37;;;6.10;;
7957;SDS011;4024;52.172;5.378;2023-03-20T10:44:09;11.97;;;7.00;;
7957;SDS011;4024;52.172;5.378;2023-03-20T10:46:41;11.57;;;6.60;;
7957;SDS011;4024;52.172;5.378;2023-03-20T10:51:50;12.80;;;6.60;;
7957;SDS011;4024;52.172;5.378;2023-03-20T10:56:47;9.33;;;6.23;;
7957;SDS011;4024;52.172;5.378;2023-03-20T10:59:19;11.37;;;7.17;;
7957;SDS011;4024;52.172;5.378;2023-03-20T11:01:50;12.67;;;6.43;;
7957;SDS011;4024;52.172;5.378;2023-03-20T11:04:16;9.97;;;6.63;;
7957;SDS011;4024;52.172;5.378;2023-03-20T11:07:06;12.50;;;6.90;;
7957;SDS011;4024;52.172;5.378;2023-03-20T11:09:27;15.53;;;7.80;;
7957;SDS011;4024;52.172;5.378;2023-03-20T11:11:57;18.00;;;7.67;;
7957;SDS011;4024;52.172;5.378;2023-03-20T11:14:26;11.73;;;7.57;;
7957;SDS011;4024;52.172;5.378;2023-03-20T11:17:03;10.93;;;7.27;;
7957;SDS011;4024;52.172;5.378;2023-03-20T11:19:34;11.77;;;7.63;;
7957;SDS011;4024;52.172;5.378;2023-03-20T11:22:21;13.20;;;8.23;;
7957;SDS011;4024;52.172;5.378;2023-03-20T11:24:51;13.60;;;8.67;;
7957;SDS011;4024;52.172;5.378;2023-03-20T11:27:24;18.60;;;9.63;;
7957;SDS011;4024;52.172;5.378;2023-03-20T11:29:51;16.17;;;10.07;;
7957;SDS011;4024;52.172;5.378;2023-03-20T11:34:51;14.00;;;9.77;;
7957;SDS011;4024;52.172;5.378;2023-03-20T11:37:25;17.33;;;9.97;;
7957;SDS011;4024;52.172;5.378;2023-03-20T11:40:01;17.03;;;10.70;;
7957;SDS011;4024;52.172;5.378;2023-03-20T11:42:51;19.80;;;11.63;;
7957;SDS011;4024;52.172;5.378;2023-03-20T11:45:48;19.40;;;11.33;;
7957;SDS011;4024;52.172;5.378;2023-03-20T11:48:18;16.77;;;11.57;;
7957;SDS011;4024;52.172;5.378;2023-03-20T11:50:59;15.27;;;10.93;;
7957;SDS011;4024;52.172;5.378;2023-03-20T11:53:32;18.10;;;11.63;;
7957;SDS011;4024;52.172;5.378;2023-03-20T11:58:55;18.67;;;13.23;;
7957;SDS011;4024;52.172;5.378;2023-03-20T12:01:24;19.43;;;12.10;;
7957;SDS011;4024;52.172;5.378;2023-03-20T12:09:19;19.90;;;12.30;;
7957;SDS011;4024;52.172;5.378;2023-03-20T12:12:28;21.60;;;13.73;;
7957;SDS011;4024;52.172;5.378;2023-03-20T12:15:17;17.43;;;12.70;;
7957;SDS011;4024;52.172;5.378;2023-03-20T12:18:11;21.97;;;13.73;;
7957;SDS011;4024;52.172;5.378;2023-03-20T12:21:00;15.87;;;12.73;;
7957;SDS011;4024;52.172;5.378;2023-03-20T12:26:11;20.27;;;13.77;;
7957;SDS011;4024;52.172;5.378;2023-03-20T12:32:16;20.13;;;14.20;;
7957;SDS011;4024;52.172;5.378;2023-03-20T12:34:49;18.30;;;13.43;;
7957;SDS011;4024;52.172;5.378;2023-03-20T12:37:21;18.00;;;14.27;;
7957;SDS011;4024;52.172;5.378;2023-03-20T12:45:13;22.13;;;15.77;;
7957;SDS011;4024;52.172;5.378;2023-03-20T12:50:58;21.90;;;15.03;;
7957;SDS011;4024;52.172;5.378;2023-03-20T12:53:36;18.93;;;15.37;;
7957;SDS011;4024;52.172;5.378;2023-03-20T12:59:07;18.17;;;15.40;;
7957;SDS011;4024;52.172;5.378;2023-03-20T13:01:46;18.67;;;13.83;;
7957;SDS011;4024;52.172;5.378;2023-03-20T13:07:21;21.30;;;14.03;;
7957;SDS011;4024;52.172;5.378;2023-03-20T13:10:11;20.27;;;13.93;;
7957;SDS011;4024;52.172;5.378;2023-03-20T13:18:20;20.20;;;14.37;;
7957;SDS011;4024;52.172;5.378;2023-03-20T13:20:57;20.97;;;14.23;;
7957;SDS011;4024;52.172;5.378;2023-03-20T13:23:32;19.60;;;15.30;;
7957;SDS011;4024;52.172;5.378;2023-03-20T13:32:19;21.80;;;13.40;;
7957;SDS011;4024;52.172;5.378;2023-03-20T13:37:34;14.83;;;13.17;;
7957;SDS011;4024;52.172;5.378;2023-03-20T13:40:21;18.37;;;14.60;;
7957;SDS011;4024;52.172;5.378;2023-03-20T13:43:02;19.60;;;13.60;;
7957;SDS011;4024;52.172;5.378;2023-03-20T13:45:36;18.87;;;14.13;;
7957;SDS011;4024;52.172;5.378;2023-03-20T13:51:07;19.13;;;14.67;;
7957;SDS011;4024;52.172;5.378;2023-03-20T13:59:46;17.67;;;12.93;;
7957;SDS011;4024;52.172;5.378;2023-03-20T14:02:33;18.00;;;12.93;;
7957;SDS011;4024;52.172;5.378;2023-03-20T14:05:17;18.43;;;13.20;;
7957;SDS011;4024;52.172;5.378;2023-03-20T14:07:47;19.67;;;13.73;;
7957;SDS011;4024;52.172;5.378;2023-03-20T14:12:57;20.00;;;13.63;;
7957;SDS011;4024;52.172;5.378;2023-03-20T14:15:25;20.10;;;13.50;;
7957;SDS011;4024;52.172;5.378;2023-03-20T14:17:55;16.97;;;12.40;;
7957;SDS011;4024;52.172;5.378;2023-03-20T14:20:24;16.37;;;12.37;;
7957;SDS011;4024;52.172;5.378;2023-03-20T14:22:57;16.47;;;12.13;;
7957;SDS011;4024;52.172;5.378;2023-03-20T14:25:23;16.63;;;13.30;;
7957;SDS011;4024;52.172;5.378;2023-03-20T14:28:07;17.23;;;11.93;;
7957;SDS011;4024;52.172;5.378;2023-03-20T14:30:49;17.87;;;12.93;;
7957;SDS011;4024;52.172;5.378;2023-03-20T14:41:32;14.00;;;11.57;;
7957;SDS011;4024;52.172;5.378;2023-03-20T14:46:49;15.57;;;11.53;;
7957;SDS011;4024;52.172;5.378;2023-03-20T14:49:29;22.13;;;13.47;;
7957;SDS011;4024;52.172;5.378;2023-03-20T14:52:23;16.90;;;12.83;;
7957;SDS011;4024;52.172;5.378;2023-03-20T14:54:54;15.97;;;13.30;;
7957;SDS011;4024;52.172;5.378;2023-03-20T14:57:29;16.20;;;12.70;;
7957;SDS011;4024;52.172;5.378;2023-03-20T14:59:57;16.83;;;13.27;;
7957;SDS011;4024;52.172;5.378;2023-03-20T15:02:27;15.50;;;13.37;;
7957;SDS011;4024;52.172;5.378;2023-03-20T15:04:58;16.23;;;12.90;;
7957;SDS011;4024;52.172;5.378;2023-03-20T15:07:24;13.13;;;11.80;;
7957;SDS011;4024;52.172;5.378;2023-03-20T15:09:59;14.67;;;12.37;;
7957;SDS011;4024;52.172;5.378;2023-03-20T15:12:28;18.60;;;11.37;;
7957;SDS011;4024;52.172;5.378;2023-03-20T15:14:59;14.57;;;11.93;;
7957;SDS011;4024;52.172;5.378;2023-03-20T15:17:33;18.23;;;13.23;;
7957;SDS011;4024;52.172;5.378;2023-03-20T15:22:59;15.97;;;13.87;;
7957;SDS011;4024;52.172;5.378;2023-03-20T15:25:31;16.23;;;13.53;;
7957;SDS011;4024;52.172;5.378;2023-03-20T15:28:45;14.63;;;13.20;;
7957;SDS011;4024;52.172;5.378;2023-03-20T15:30:52;14.63;;;12.60;;
7957;SDS011;4024;52.172;5.378;2023-03-20T15:33:23;14.33;;;12.40;;
7957;SDS011;4024;52.172;5.378;2023-03-20T15:35:52;17.60;;;12.80;;
7957;SDS011;4024;52.172;5.378;2023-03-20T15:38:18;13.87;;;12.47;;
7957;SDS011;4024;52.172;5.378;2023-03-20T15:40:44;13.87;;;12.57;;
7957;SDS011;4024;52.172;5.378;2023-03-20T15:43:23;15.63;;;12.57;;
7957;SDS011;4024;52.172;5.378;2023-03-20T15:45:51;16.27;;;12.67;;
7957;SDS011;4024;52.172;5.378;2023-03-20T15:48:21;15.40;;;12.67;;
7957;SDS011;4024;52.172;5.378;2023-03-20T15:50:52;16.87;;;12.93;;
7957;SDS011;4024;52.172;5.378;2023-03-20T15:56:05;14.67;;;13.00;;
7957;SDS011;4024;52.172;5.378;2023-03-20T15:58:32;13.77;;;12.23;;
7957;SDS011;4024;52.172;5.378;2023-03-20T16:00:59;14.00;;;12.60;;
7957;SDS011;4024;52.172;5.378;2023-03-20T16:03:27;16.17;;;12.83;;
7957;SDS011;4024;52.172;5.378;2023-03-20T16:05:53;14.23;;;12.77;;
7957;SDS011;4024;52.172;5.378;2023-03-20T16:08:21;16.40;;;13.23;;
7957;SDS011;4024;52.172;5.378;2023-03-20T16:10:53;14.33;;;12.83;;
7957;SDS011;4024;52.172;5.378;2023-03-20T16:13:42;16.10;;;13.40;;
7957;SDS011;4024;52.172;5.378;2023-03-20T16:16:14;14.90;;;13.50;;
7957;SDS011;4024;52.172;5.378;2023-03-20T16:18:42;15.87;;;14.17;;
7957;SDS011;4024;52.172;5.378;2023-03-20T16:21:17;22.23;;;14.97;;
7957;SDS011;4024;52.172;5.378;2023-03-20T16:23:51;17.93;;;15.27;;
7957;SDS011;4024;52.172;5.378;2023-03-20T16:26:20;18.23;;;14.60;;
7957;SDS011;4024;52.172;5.378;2023-03-20T16:28:49;19.07;;;14.90;;
7957;SDS011;4024;52.172;5.378;2023-03-20T16:33:44;20.13;;;16.53;;
7957;SDS011;4024;52.172;5.378;2023-03-20T16:36:17;19.67;;;15.97;;
7957;SDS011;4024;52.172;5.378;2023-03-20T16:39:46;22.07;;;15.67;;
7957;SDS011;4024;52.172;5.378;2023-03-20T16:41:41;21.60;;;16.47;;
7957;SDS011;4024;52.172;5.378;2023-03-20T16:44:16;19.77;;;15.57;;
7957;SDS011;4024;52.172;5.378;2023-03-20T16:46:56;20.90;;;15.30;;
7957;SDS011;4024;52.172;5.378;2023-03-20T16:52:29;21.67;;;15.50;;
7957;SDS011;4024;52.172;5.378;2023-03-20T16:55:00;22.23;;;16.30;;
7957;SDS011;4024;52.172;5.378;2023-03-20T16:57:33;20.23;;;15.87;;
7957;SDS011;4024;52.172;5.378;2023-03-20T17:00:03;23.53;;;16.67;;
7957;SDS011;4024;52.172;5.378;2023-03-20T17:02:42;24.13;;;17.57;;
7957;SDS011;4024;52.172;5.378;2023-03-20T17:05:17;21.47;;;17.47;;
7957;SDS011;4024;52.172;5.378;2023-03-20T17:07:48;21.03;;;15.87;;
7957;SDS011;4024;52.172;5.378;2023-03-20T17:12:45;19.17;;;15.63;;
7957;SDS011;4024;52.172;5.378;2023-03-20T17:15:16;21.07;;;15.40;;
7957;SDS011;4024;52.172;5.378;2023-03-20T17:17:47;18.20;;;15.33;;
7957;SDS011;4024;52.172;5.378;2023-03-20T17:20:17;19.53;;;15.67;;
7957;SDS011;4024;52.172;5.378;2023-03-20T17:22:47;22.33;;;16.20;;
7957;SDS011;4024;52.172;5.378;2023-03-20T17:25:13;21.13;;;16.20;;
7957;SDS011;4024;52.172;5.378;2023-03-20T17:27:39;20.83;;;15.80;;
7957;SDS011;4024;52.172;5.378;2023-03-20T17:30:06;19.93;;;16.53;;
7957;SDS011;4024;52.172;5.378;2023-03-20T17:32:39;20.27;;;15.63;;
7957;SDS011;4024;52.172;5.378;2023-03-20T17:35:04;18.93;;;15.53;;
7957;SDS011;4024;52.172;5.378;2023-03-20T17:37:31;19.47;;;16.17;;
7957;SDS011;4024;52.172;5.378;2023-03-20T17:39:57;22.17;;;16.40;;
7957;SDS011;4024;52.172;5.378;2023-03-20T17:42:25;23.37;;;17.30;;